createdAt,value
2023-01-26T00:00:55.601Z,-1.33
2023-01-26T00:03:25.081Z,-1.35
2023-01-26T00:05:54.637Z,-1.39
2023-01-26T00:08:24.056Z,-1.41
2023-01-26T00:10:56.637Z,-1.42
2023-01-26T00:13:26.027Z,-1.42
2023-01-26T00:15:55.401Z,-1.42
2023-01-26T00:18:24.856Z,-1.41
2023-01-26T00:20:57.916Z,-1.42
2023-01-26T00:23:29.260Z,-1.40
2023-01-26T00:26:00.462Z,-1.39
2023-01-26T00:28:30.397Z,-1.40
2023-01-26T00:31:05.090Z,-1.38
2023-01-26T00:33:34.784Z,-1.36
2023-01-26T00:36:06.010Z,-1.37
2023-01-26T00:38:35.634Z,-1.38
2023-01-26T00:41:07.135Z,-1.39
2023-01-26T00:43:36.538Z,-1.41
2023-01-26T00:46:06.270Z,-1.41
2023-01-26T00:48:38.069Z,-1.44
2023-01-26T00:51:09.489Z,-1.49
2023-01-26T00:53:38.874Z,-1.49
2023-01-26T00:56:10.255Z,-1.52
2023-01-26T00:58:40.484Z,-1.55
2023-01-26T01:01:09.984Z,-1.55
2023-01-26T01:03:39.499Z,-1.54
2023-01-26T01:06:08.947Z,-1.55
2023-01-26T01:08:38.357Z,-1.56
2023-01-26T01:11:12.965Z,-1.57
2023-01-26T01:13:42.937Z,-1.58
2023-01-26T01:16:16.749Z,-1.53
2023-01-26T01:18:46.446Z,-1.53
2023-01-26T01:21:18.557Z,-1.53
2023-01-26T01:23:48.950Z,-1.54
2023-01-26T01:26:19.855Z,-1.54
2023-01-26T01:28:49.414Z,-1.57
2023-01-26T01:31:18.849Z,-1.59
2023-01-26T01:33:48.263Z,-1.57
2023-01-26T01:36:18.706Z,-1.56
2023-01-26T01:38:49.332Z,-1.59
2023-01-26T01:41:23.722Z,-1.59
2023-01-26T01:44:18.900Z,-1.58
2023-01-26T01:46:54.991Z,-1.58
2023-01-26T01:49:30.379Z,-1.61
2023-01-26T01:52:07.697Z,-1.61
2023-01-26T01:54:44.120Z,-1.59
2023-01-26T01:57:27.578Z,-1.58
2023-01-26T02:00:06.175Z,-1.58
2023-01-26T02:02:44.921Z,-1.59
2023-01-26T02:05:26.841Z,-1.57
2023-01-26T02:07:56.245Z,-1.56
2023-01-26T02:10:27.209Z,-1.58
2023-01-26T02:13:00.646Z,-1.61
2023-01-26T02:15:39.487Z,-1.60
2023-01-26T02:18:11.395Z,-1.65
2023-01-26T02:20:48.688Z,-1.66
2023-01-26T02:23:35.839Z,-1.66
2023-01-26T02:26:16.646Z,-1.69
2023-01-26T02:28:48.956Z,-1.69
2023-01-26T02:31:20.020Z,-1.67
2023-01-26T02:33:51.273Z,-1.68
2023-01-26T02:36:24.487Z,-1.66
2023-01-26T02:39:11.115Z,-1.66
2023-01-26T02:42:00.608Z,-1.63
2023-01-26T02:44:31.557Z,-1.66
2023-01-26T02:47:01.350Z,-1.65
2023-01-26T02:49:48.446Z,-1.72
2023-01-26T02:52:22.473Z,-1.71
2023-01-26T02:55:16.139Z,-1.72
2023-01-26T02:57:48.306Z,-1.73
2023-01-26T03:00:20.441Z,-1.74
2023-01-26T03:02:54.091Z,-1.75
2023-01-26T03:05:23.584Z,-1.75
2023-01-26T03:07:53.920Z,-1.73
2023-01-26T03:10:26.970Z,-1.73
2023-01-26T03:12:57.741Z,-1.72
2023-01-26T03:15:43.531Z,-1.75
2023-01-26T03:18:34.979Z,-1.76
2023-01-26T03:21:25.792Z,-1.73
2023-01-26T03:24:12.802Z,-1.78
2023-01-26T03:27:08.758Z,-1.81
2023-01-26T03:29:40.492Z,-1.81
2023-01-26T03:32:10.058Z,-1.81
2023-01-26T03:34:40.877Z,-1.81
2023-01-26T03:37:10.546Z,-1.80
2023-01-26T03:40:08.808Z,-1.80
2023-01-26T03:42:57.200Z,-1.79
2023-01-26T03:45:45.522Z,-1.76
2023-01-26T03:48:32.451Z,-1.75
2023-01-26T03:51:21.682Z,-1.73
2023-01-26T03:54:08.842Z,-1.72
2023-01-26T03:56:38.439Z,-1.73
2023-01-26T03:59:15.668Z,-1.71
2023-01-26T04:02:06.750Z,-1.70
2023-01-26T04:04:55.514Z,-1.69
2023-01-26T04:07:46.571Z,-1.69
2023-01-26T04:10:17.122Z,-1.67
2023-01-26T04:13:00.439Z,-1.64
2023-01-26T04:15:48.044Z,-1.59
2023-01-26T04:18:36.557Z,-1.67
2023-01-26T04:21:25.164Z,-1.69
2023-01-26T04:23:57.214Z,-1.69
2023-01-26T04:26:34.733Z,-1.68
2023-01-26T04:29:08.091Z,-1.68
2023-01-26T04:31:38.280Z,-1.67
2023-01-26T04:34:14.146Z,-1.68
2023-01-26T04:36:45.915Z,-1.67
2023-01-26T04:39:17.534Z,-1.65
2023-01-26T04:41:50.772Z,-1.65
2023-01-26T04:44:22.110Z,-1.66
2023-01-26T04:46:51.965Z,-1.66
2023-01-26T04:49:25.180Z,-1.66
2023-01-26T04:51:55.029Z,-1.68
2023-01-26T04:54:25.341Z,-1.68
2023-01-26T04:56:55.272Z,-1.70
2023-01-26T04:59:24.937Z,-1.70
2023-01-26T05:01:58.735Z,-1.70
2023-01-26T05:04:30.288Z,-1.73
2023-01-26T05:06:59.929Z,-1.73
2023-01-26T05:09:30.197Z,-1.71
2023-01-26T05:12:34.813Z,-1.71
2023-01-26T05:15:22.500Z,-1.68
2023-01-26T05:18:15.123Z,-1.70
2023-01-26T05:21:04.024Z,-1.69
2023-01-26T05:23:41.636Z,-1.69
2023-01-26T05:26:29.743Z,-1.69
2023-01-26T05:29:03.159Z,-1.70
2023-01-26T05:31:32.689Z,-1.74
2023-01-26T05:34:02.098Z,-1.77
2023-01-26T05:36:33.475Z,-1.80
2023-01-26T05:39:03.019Z,-1.81
2023-01-26T05:41:33.400Z,-1.81
2023-01-26T05:44:21.118Z,-1.79
2023-01-26T05:46:54.794Z,-1.83
2023-01-26T05:49:24.598Z,-1.84
2023-01-26T05:51:56.471Z,-1.83
2023-01-26T05:54:27.077Z,-1.82
2023-01-26T05:56:57.834Z,-1.81
2023-01-26T05:59:29.067Z,-1.82
2023-01-26T06:01:58.680Z,-1.80
2023-01-26T06:04:29.155Z,-1.78
2023-01-26T06:07:02.767Z,-1.76
2023-01-26T06:09:38.128Z,-1.74
2023-01-26T06:12:17.663Z,-1.75
2023-01-26T06:14:59.389Z,-1.72
2023-01-26T06:17:37.660Z,-1.71
2023-01-26T06:20:12.612Z,-1.70
2023-01-26T06:22:43.728Z,-1.73
2023-01-26T06:25:13.231Z,-1.72
2023-01-26T06:27:42.799Z,-1.73
2023-01-26T06:30:28.872Z,-1.73
2023-01-26T06:33:03.208Z,-1.76
2023-01-26T06:35:37.155Z,-1.76
2023-01-26T06:38:10.383Z,-1.76
2023-01-26T06:40:39.890Z,-1.76
2023-01-26T06:43:09.283Z,-1.76
2023-01-26T06:45:39.046Z,-1.77
2023-01-26T06:48:08.474Z,-1.80
2023-01-26T06:50:38.110Z,-1.81
2023-01-26T06:53:30.873Z,-1.81
2023-01-26T06:56:18.770Z,-1.81
2023-01-26T06:59:11.581Z,-1.80
2023-01-26T07:02:00.321Z,-1.78
2023-01-26T07:04:29.714Z,-1.76
2023-01-26T07:06:59.222Z,-1.75
2023-01-26T07:09:30.673Z,-1.75
2023-01-26T07:12:00.119Z,-1.76
2023-01-26T07:14:29.553Z,-1.75
2023-01-26T07:16:59.015Z,-1.73
2023-01-26T07:19:30.338Z,-1.73
2023-01-26T07:21:59.838Z,-1.74
2023-01-26T07:24:31.128Z,-1.74
2023-01-26T07:27:00.554Z,-1.73
2023-01-26T07:29:29.923Z,-1.74
2023-01-26T07:31:59.378Z,-1.74
2023-01-26T07:34:28.829Z,-1.76
2023-01-26T07:36:58.372Z,-1.78
2023-01-26T07:39:27.877Z,-1.74
2023-01-26T07:41:58.710Z,-1.81
2023-01-26T07:44:48.862Z,-1.85
2023-01-26T07:47:20.028Z,-1.84
2023-01-26T07:49:49.403Z,-1.84
2023-01-26T07:52:19.009Z,-1.84
2023-01-26T07:54:48.404Z,-1.84
2023-01-26T07:57:19.169Z,-1.84
2023-01-26T07:59:48.632Z,-1.81
2023-01-26T08:02:18.123Z,-1.87
2023-01-26T08:04:47.670Z,-1.82
2023-01-26T08:07:17.441Z,-1.85
2023-01-26T08:09:46.857Z,-1.83
2023-01-26T08:12:16.246Z,-1.85
2023-01-26T08:14:47.436Z,-1.86
2023-01-26T08:17:17.761Z,-1.84
2023-01-26T08:19:47.835Z,-1.83
2023-01-26T08:22:17.390Z,-1.82
2023-01-26T08:24:46.776Z,-1.79
2023-01-26T08:27:16.236Z,-1.75
2023-01-26T08:29:47.067Z,-1.73
2023-01-26T08:32:16.570Z,-1.70
2023-01-26T08:34:48.363Z,-1.71
2023-01-26T08:37:17.839Z,-1.69
2023-01-26T08:39:47.187Z,-1.69
2023-01-26T08:42:16.960Z,-1.69
2023-01-26T08:44:47.817Z,-1.69
2023-01-26T08:47:17.241Z,-1.69
2023-01-26T08:49:46.686Z,-1.65
2023-01-26T08:52:16.691Z,-1.63
2023-01-26T08:54:46.206Z,-1.63
2023-01-26T08:57:15.610Z,-1.61
2023-01-26T08:59:45.063Z,-1.58
2023-01-26T09:02:15.987Z,-1.53
2023-01-26T09:04:45.497Z,-1.49
2023-01-26T09:07:15.021Z,-1.48
2023-01-26T09:09:44.909Z,-1.47
2023-01-26T09:12:14.310Z,-1.46
2023-01-26T09:14:43.678Z,-1.45
2023-01-26T09:17:13.035Z,-1.43
2023-01-26T09:19:44.998Z,-1.43
2023-01-26T09:22:14.518Z,-1.42
2023-01-26T09:24:44.193Z,-1.42
2023-01-26T09:27:13.560Z,-1.41
2023-01-26T09:29:43.036Z,-1.41
2023-01-26T09:32:12.518Z,-1.38
2023-01-26T09:34:45.779Z,-1.33
2023-01-26T09:37:16.185Z,-1.32
2023-01-26T09:39:45.827Z,-1.35
2023-01-26T09:42:39.195Z,-1.37
2023-01-26T09:45:28.422Z,-1.40
2023-01-26T09:48:25.196Z,-1.42
2023-01-26T09:51:07.655Z,-1.41
2023-01-26T09:53:47.917Z,-1.42
2023-01-26T09:56:21.171Z,-1.38
2023-01-26T09:58:57.481Z,-1.38
2023-01-26T10:01:38.387Z,-1.39
2023-01-26T10:04:21.490Z,-1.40
2023-01-26T10:06:54.832Z,-1.38
2023-01-26T10:09:49.456Z,-1.40
2023-01-26T10:12:25.921Z,-1.38
2023-01-26T10:15:02.786Z,-1.39
2023-01-26T10:17:36.810Z,-1.37
2023-01-26T10:20:19.528Z,-1.36
2023-01-26T10:22:54.380Z,-1.35
2023-01-26T10:25:35.330Z,-1.34
2023-01-26T10:28:15.349Z,-1.36
2023-01-26T10:30:48.334Z,-1.33
2023-01-26T10:33:25.833Z,-1.36
2023-01-26T10:35:56.057Z,-1.39
2023-01-26T10:38:41.807Z,-1.40
2023-01-26T10:41:28.286Z,-1.38
2023-01-26T10:44:00.810Z,-1.39
2023-01-26T10:46:35.272Z,-1.40
2023-01-26T10:49:17.119Z,-1.40
2023-01-26T10:52:07.321Z,-1.43
2023-01-26T10:54:39.544Z,-1.55
2023-01-26T10:57:28.544Z,-1.52
2023-01-26T11:00:00.268Z,-1.58
2023-01-26T11:02:32.403Z,-1.48
2023-01-26T11:05:24.380Z,-1.56
2023-01-26T11:08:00.205Z,-1.56
2023-01-26T11:10:36.171Z,-1.56
2023-01-26T11:13:19.954Z,-1.55
2023-01-26T11:15:53.416Z,-1.55
2023-01-26T11:18:42.432Z,-1.53
2023-01-26T11:21:17.322Z,-1.54
2023-01-26T11:24:06.091Z,-1.53
2023-01-26T11:27:29.906Z,-1.54
2023-01-26T11:30:28.296Z,-1.49
2023-01-26T11:33:07.736Z,-1.49
2023-01-26T11:35:52.576Z,-1.44
2023-01-26T11:38:37.325Z,-1.44
2023-01-26T11:41:29.129Z,-1.44
2023-01-26T11:44:55.268Z,-1.46
2023-01-26T11:47:46.354Z,-1.50
2023-01-26T11:50:36.849Z,-1.51
2023-01-26T11:53:32.853Z,-1.53
2023-01-26T11:56:25.716Z,-1.51
2023-01-26T11:59:02.719Z,-1.51
2023-01-26T12:01:42.694Z,-1.52
2023-01-26T12:04:22.271Z,-1.51
2023-01-26T12:06:59.185Z,-1.48
2023-01-26T12:09:38.558Z,-1.46
2023-01-26T12:12:15.386Z,-1.42
2023-01-26T12:14:54.325Z,-1.34
2023-01-26T12:17:43.329Z,-1.34
2023-01-26T12:20:37.483Z,-1.31
2023-01-26T12:23:18.498Z,-1.37
2023-01-26T12:25:55.643Z,-1.43
2023-01-26T12:28:32.782Z,-1.45
2023-01-26T12:31:14.218Z,-1.48
2023-01-26T12:33:45.915Z,-1.49
2023-01-26T12:36:29.240Z,-1.47
2023-01-26T12:39:14.938Z,-1.45
2023-01-26T12:42:18.782Z,-1.44
2023-01-26T12:44:55.353Z,-1.41
2023-01-26T12:47:33.044Z,-1.37
2023-01-26T12:50:12.643Z,-1.37
2023-01-26T12:52:48.696Z,-1.36
2023-01-26T12:55:25.167Z,-1.24
2023-01-26T12:58:00.140Z,-1.27
2023-01-26T13:00:33.805Z,-1.36
2023-01-26T13:03:15.266Z,-1.39
2023-01-26T13:06:03.448Z,-1.41
2023-01-26T13:08:53.907Z,-1.43
2023-01-26T13:11:46.470Z,-1.43
2023-01-26T13:14:38.938Z,-1.40
2023-01-26T13:17:59.836Z,-1.40
2023-01-26T13:20:51.000Z,-1.42
2023-01-26T13:23:45.489Z,-1.45
2023-01-26T13:26:47.321Z,-1.46
2023-01-26T13:29:36.131Z,-1.46
2023-01-26T13:33:06.444Z,-1.49
2023-01-26T13:35:38.009Z,-1.50
2023-01-26T13:38:21.321Z,-1.55
2023-01-26T13:40:52.308Z,-1.59
2023-01-26T13:43:33.768Z,-1.59
2023-01-26T13:46:15.362Z,-1.58
2023-01-26T13:48:49.206Z,-1.55
2023-01-26T13:51:23.850Z,-1.52
2023-01-26T13:54:05.697Z,-1.51
2023-01-26T13:56:39.844Z,-1.49
2023-01-26T14:00:49.951Z,-1.49
2023-01-26T14:03:23.134Z,-1.53
2023-01-26T14:05:57.827Z,-1.54
2023-01-26T14:08:27.628Z,-1.57
2023-01-26T14:10:57.526Z,-1.56
2023-01-26T14:13:37.685Z,-1.59
2023-01-26T14:16:23.612Z,-1.59
2023-01-26T14:19:05.735Z,-1.57
2023-01-26T14:21:46.643Z,-1.59
2023-01-26T14:24:16.534Z,-1.62
2023-01-26T14:26:46.423Z,-1.63
2023-01-26T14:29:24.426Z,-1.65
2023-01-26T14:31:57.959Z,-1.67
2023-01-26T14:34:30.849Z,-1.66
2023-01-26T14:37:14.517Z,-1.65
2023-01-26T14:39:48.056Z,-1.68
2023-01-26T14:42:21.413Z,-1.68
2023-01-26T14:44:52.182Z,-1.72
2023-01-26T14:47:26.754Z,-1.73
2023-01-26T14:50:30.724Z,-1.77
2023-01-26T14:53:01.497Z,-1.80
2023-01-26T14:55:36.143Z,-1.81
2023-01-26T14:58:19.988Z,-1.81
2023-01-26T15:00:52.160Z,-1.82
2023-01-26T15:03:30.930Z,-1.86
2023-01-26T15:06:23.810Z,-1.84
2023-01-26T15:09:04.101Z,-1.84
2023-01-26T15:11:57.649Z,-1.84
2023-01-26T15:14:36.875Z,-1.83
2023-01-26T15:17:07.758Z,-1.79
2023-01-26T15:19:45.968Z,-1.77
2023-01-26T15:22:24.265Z,-1.82
2023-01-26T15:25:20.010Z,-1.85
2023-01-26T15:27:57.457Z,-1.88
2023-01-26T15:30:32.860Z,-1.92
2023-01-26T15:33:04.698Z,-1.90
2023-01-26T15:35:35.952Z,-1.94
2023-01-26T15:38:10.837Z,-1.93
2023-01-26T15:40:41.266Z,-1.94
2023-01-26T15:43:15.897Z,-1.95
2023-01-26T15:45:53.553Z,-1.94
2023-01-26T15:48:26.825Z,-1.92
2023-01-26T15:50:56.195Z,-1.96
2023-01-26T15:53:27.076Z,-1.96
2023-01-26T15:55:58.500Z,-1.96
2023-01-26T15:58:28.759Z,-1.98
2023-01-26T16:00:58.840Z,-1.97
2023-01-26T16:03:29.550Z,-1.99
2023-01-26T16:05:59.327Z,-1.98
2023-01-26T16:08:28.794Z,-1.98
2023-01-26T16:10:59.662Z,-1.98
2023-01-26T16:13:29.109Z,-1.97
2023-01-26T16:16:01.726Z,-1.98
2023-01-26T16:18:32.698Z,-1.98
2023-01-26T16:21:02.298Z,-1.99
2023-01-26T16:23:31.944Z,-1.99
2023-01-26T16:26:01.387Z,-1.97
2023-01-26T16:28:30.760Z,-1.98
2023-01-26T16:31:02.528Z,-1.97
2023-01-26T16:33:33.428Z,-1.93
2023-01-26T16:36:02.823Z,-1.95
2023-01-26T16:38:32.294Z,-1.94
2023-01-26T16:41:01.862Z,-1.94
2023-01-26T16:43:32.537Z,-1.88
2023-01-26T16:46:01.935Z,-1.92
2023-01-26T16:48:34.864Z,-1.94
2023-01-26T16:51:20.704Z,-1.97
2023-01-26T16:53:50.980Z,-1.97
2023-01-26T16:56:21.666Z,-1.96
2023-01-26T16:58:51.199Z,-1.97
2023-01-26T17:01:24.189Z,-1.97
2023-01-26T17:03:55.927Z,-1.97
2023-01-26T17:06:25.848Z,-1.99
2023-01-26T17:08:55.570Z,-1.99
2023-01-26T17:11:28.412Z,-2.00
2023-01-26T17:13:59.359Z,-1.95
2023-01-26T17:16:32.020Z,-1.97
2023-01-26T17:19:02.995Z,-1.99
2023-01-26T17:21:32.649Z,-1.98
2023-01-26T17:24:02.045Z,-1.97
2023-01-26T17:26:31.385Z,-1.95
2023-01-26T17:29:00.916Z,-1.95
2023-01-26T17:31:31.676Z,-1.95
2023-01-26T17:34:02.675Z,-1.95
2023-01-26T17:36:32.096Z,-1.97
2023-01-26T17:39:01.538Z,-1.97
2023-01-26T17:41:30.924Z,-2.00
2023-01-26T17:44:00.324Z,-2.00
2023-01-26T17:46:29.904Z,-1.99
2023-01-26T17:48:59.298Z,-1.98
2023-01-26T17:51:30.082Z,-1.97
2023-01-26T17:53:59.477Z,-1.98
2023-01-26T17:56:30.806Z,-1.98
2023-01-26T17:59:00.363Z,-1.98
2023-01-26T18:01:29.810Z,-1.95
2023-01-26T18:03:59.425Z,-1.93
2023-01-26T18:06:31.198Z,-1.92
2023-01-26T18:09:00.690Z,-1.93
2023-01-26T18:11:30.214Z,-1.93
2023-01-26T18:13:59.728Z,-1.92
2023-01-26T18:16:29.438Z,-1.85
2023-01-26T18:19:01.028Z,-1.89
2023-01-26T18:21:34.436Z,-1.92
2023-01-26T18:24:07.066Z,-1.94
2023-01-26T18:26:39.121Z,-1.97
2023-01-26T18:29:08.771Z,-1.98
2023-01-26T18:31:41.569Z,-1.97
2023-01-26T18:34:12.983Z,-1.95
2023-01-26T18:36:43.843Z,-1.96
2023-01-26T18:39:16.780Z,-1.96
2023-01-26T18:41:46.217Z,-1.97
2023-01-26T18:44:15.672Z,-1.98
2023-01-26T18:46:45.096Z,-1.97
2023-01-26T18:49:14.522Z,-1.97
2023-01-26T18:51:48.045Z,-1.96
2023-01-26T18:54:20.057Z,-1.95
2023-01-26T18:56:49.491Z,-1.94
2023-01-26T18:59:18.908Z,-1.93
2023-01-26T19:01:48.737Z,-1.92
2023-01-26T19:04:18.527Z,-1.91
2023-01-26T19:06:49.357Z,-1.92
2023-01-26T19:09:22.533Z,-1.93
2023-01-26T19:11:52.318Z,-1.93
2023-01-26T19:14:22.567Z,-1.92
2023-01-26T19:16:52.146Z,-1.94
2023-01-26T19:19:21.838Z,-1.96
2023-01-26T19:21:52.699Z,-1.96
2023-01-26T19:24:22.820Z,-1.96
2023-01-26T19:26:52.344Z,-1.98
2023-01-26T19:29:21.831Z,-1.94
2023-01-26T19:31:51.410Z,-1.92
2023-01-26T19:34:20.788Z,-1.94
2023-01-26T19:36:50.247Z,-1.96
2023-01-26T19:39:20.984Z,-1.97
2023-01-26T19:41:50.576Z,-1.97
2023-01-26T19:44:20.636Z,-1.97
2023-01-26T19:46:52.971Z,-1.96
2023-01-26T19:49:22.827Z,-1.95
2023-01-26T19:51:53.218Z,-1.96
2023-01-26T19:54:24.029Z,-1.98
2023-01-26T19:56:53.432Z,-1.98
2023-01-26T19:59:22.830Z,-1.97
2023-01-26T20:01:52.166Z,-1.92
2023-01-26T20:04:21.611Z,-1.94
2023-01-26T20:06:51.061Z,-1.99
2023-01-26T20:09:20.487Z,-2.05
2023-01-26T20:11:52.570Z,-2.05
2023-01-26T20:14:22.198Z,-2.06
2023-01-26T20:16:51.635Z,-2.09
2023-01-26T20:19:21.166Z,-2.13
2023-01-26T20:21:50.921Z,-2.13
2023-01-26T20:24:20.410Z,-2.12
2023-01-26T20:26:51.477Z,-2.13
2023-01-26T20:29:21.672Z,-2.15
2023-01-26T20:31:51.973Z,-2.12
2023-01-26T20:34:22.027Z,-2.11
2023-01-26T20:36:54.582Z,-2.09
2023-01-26T20:39:25.181Z,-2.08
2023-01-26T20:41:58.045Z,-2.08
2023-01-26T20:44:27.424Z,-2.08
2023-01-26T20:46:57.139Z,-2.08
2023-01-26T20:49:26.613Z,-2.08
2023-01-26T20:51:55.989Z,-2.07
2023-01-26T20:54:25.473Z,-2.07
2023-01-26T20:56:55.000Z,-2.06
2023-01-26T20:59:26.741Z,-2.06
2023-01-26T21:01:56.182Z,-2.06
2023-01-26T21:04:26.804Z,-1.99
2023-01-26T21:06:56.212Z,-2.02
2023-01-26T21:09:25.673Z,-2.03
2023-01-26T21:11:55.029Z,-2.05
2023-01-26T21:14:25.723Z,-2.07
2023-01-26T21:16:55.641Z,-2.07
2023-01-26T21:19:25.130Z,-2.08
2023-01-26T21:21:54.634Z,-2.08
2023-01-26T21:24:24.092Z,-2.05
2023-01-26T21:26:53.499Z,-2.06
2023-01-26T21:29:23.360Z,-2.07
2023-01-26T21:31:54.088Z,-2.07
2023-01-26T21:34:23.537Z,-2.06
2023-01-26T21:36:52.907Z,-2.09
2023-01-26T21:39:22.362Z,-2.14
2023-01-26T21:41:57.601Z,-2.14
2023-01-26T21:44:29.612Z,-2.17
2023-01-26T21:47:03.940Z,-2.18
2023-01-26T21:49:33.392Z,-2.17
2023-01-26T21:52:20.091Z,-2.16
2023-01-26T21:54:49.528Z,-2.17
2023-01-26T21:57:36.632Z,-2.17
2023-01-26T22:00:08.048Z,-2.16
2023-01-26T22:02:38.784Z,-2.18
2023-01-26T22:05:09.822Z,-2.16
2023-01-26T22:07:39.399Z,-2.19
2023-01-26T22:10:12.445Z,-2.19
2023-01-26T22:12:42.351Z,-2.21
2023-01-26T22:15:13.766Z,-2.20
2023-01-26T22:17:44.631Z,-2.20
2023-01-26T22:20:14.449Z,-2.19
2023-01-26T22:22:44.075Z,-2.17
2023-01-26T22:25:13.485Z,-2.18
2023-01-26T22:27:43.024Z,-2.22
2023-01-26T22:30:14.033Z,-2.22
2023-01-26T22:32:45.558Z,-2.21
2023-01-26T22:35:15.767Z,-2.20
2023-01-26T22:37:45.531Z,-2.17
2023-01-26T22:40:15.617Z,-2.14
2023-01-26T22:42:44.994Z,-2.18
2023-01-26T22:45:15.335Z,-2.21
2023-01-26T22:47:46.324Z,-2.22
2023-01-26T22:50:16.493Z,-2.22
2023-01-26T22:52:45.894Z,-2.24
2023-01-26T22:55:15.608Z,-2.24
2023-01-26T22:57:45.106Z,-2.24
2023-01-26T23:00:15.879Z,-2.23
2023-01-26T23:02:46.653Z,-2.24
2023-01-26T23:05:16.227Z,-2.23
2023-01-26T23:07:45.893Z,-2.22
2023-01-26T23:10:15.963Z,-2.23
2023-01-26T23:12:45.293Z,-2.20
2023-01-26T23:15:14.797Z,-2.20
2023-01-26T23:17:44.202Z,-2.21
2023-01-26T23:20:15.306Z,-2.21
2023-01-26T23:22:44.645Z,-2.19
2023-01-26T23:25:31.898Z,-2.19
2023-01-26T23:28:04.298Z,-2.18
2023-01-26T23:30:34.086Z,-2.17
2023-01-26T23:33:03.546Z,-2.17
2023-01-26T23:35:34.328Z,-2.17
2023-01-26T23:38:04.074Z,-2.17
2023-01-26T23:40:34.557Z,-2.17
2023-01-26T23:43:16.164Z,-2.17
2023-01-26T23:45:48.639Z,-2.16
2023-01-26T23:48:18.939Z,-2.14
2023-01-26T23:50:49.734Z,-2.14
2023-01-26T23:53:19.072Z,-2.16
2023-01-26T23:55:48.461Z,-2.15
2023-01-26T23:58:17.838Z,-2.11
